sensor_id;sensor_type;location;lat;lon;timestamp;P1;durP1;ratioP1;P2;durP2;ratioP2
24030;SDS011;12240;51.142;22.486;2023-03-31T00:01:20;33.78;;;10.73;;
24030;SDS011;12240;51.142;22.486;2023-03-31T00:03:51;35.90;;;10.60;;
24030;SDS011;12240;51.142;22.486;2023-03-31T00:06:32;31.50;;;9.60;;
24030;SDS011;12240;51.142;22.486;2023-03-31T00:09:09;25.65;;;8.40;;
24030;SDS011;12240;51.142;22.486;2023-03-31T00:11:40;34.03;;;10.93;;
24030;SDS011;12240;51.142;22.486;2023-03-31T00:14:08;31.42;;;10.55;;
24030;SDS011;12240;51.142;22.486;2023-03-31T00:16:37;32.00;;;9.95;;
24030;SDS011;12240;51.142;22.486;2023-03-31T00:19:06;31.88;;;9.60;;
24030;SDS011;12240;51.142;22.486;2023-03-31T00:21:36;26.23;;;9.77;;
24030;SDS011;12240;51.142;22.486;2023-03-31T00:24:05;27.73;;;9.57;;
24030;SDS011;12240;51.142;22.486;2023-03-31T00:26:33;35.42;;;10.65;;
24030;SDS011;12240;51.142;22.486;2023-03-31T00:29:06;26.27;;;9.80;;
24030;SDS011;12240;51.142;22.486;2023-03-31T00:31:36;29.58;;;9.38;;
24030;SDS011;12240;51.142;22.486;2023-03-31T00:34:05;28.98;;;10.13;;
24030;SDS011;12240;51.142;22.486;2023-03-31T00:36:34;33.53;;;10.65;;
24030;SDS011;12240;51.142;22.486;2023-03-31T00:39:04;24.65;;;8.98;;
24030;SDS011;12240;51.142;22.486;2023-03-31T00:41:36;33.85;;;9.88;;
24030;SDS011;12240;51.142;22.486;2023-03-31T00:44:07;32.40;;;10.98;;
24030;SDS011;12240;51.142;22.486;2023-03-31T00:49:47;42.65;;;12.75;;
24030;SDS011;12240;51.142;22.486;2023-03-31T00:52:29;36.70;;;10.98;;
24030;SDS011;12240;51.142;22.486;2023-03-31T00:55:09;35.93;;;12.00;;
24030;SDS011;12240;51.142;22.486;2023-03-31T00:57:44;44.40;;;12.05;;
24030;SDS011;12240;51.142;22.486;2023-03-31T01:00:15;32.03;;;10.10;;
24030;SDS011;12240;51.142;22.486;2023-03-31T01:02:48;46.92;;;12.15;;
24030;SDS011;12240;51.142;22.486;2023-03-31T01:05:30;37.03;;;10.93;;
24030;SDS011;12240;51.142;22.486;2023-03-31T01:08:12;37.65;;;10.88;;
24030;SDS011;12240;51.142;22.486;2023-03-31T01:10:44;44.77;;;12.17;;
24030;SDS011;12240;51.142;22.486;2023-03-31T01:13:17;39.30;;;11.95;;
24030;SDS011;12240;51.142;22.486;2023-03-31T01:15:46;38.63;;;12.50;;
24030;SDS011;12240;51.142;22.486;2023-03-31T01:18:14;40.55;;;11.85;;
24030;SDS011;12240;51.142;22.486;2023-03-31T01:20:57;49.88;;;13.15;;
24030;SDS011;12240;51.142;22.486;2023-03-31T01:26:46;280.65;;;106.47;;
24030;SDS011;12240;51.142;22.486;2023-03-31T01:47:24;27.05;;;12.32;;
24030;SDS011;12240;51.142;22.486;2023-03-31T01:50:10;27.58;;;12.32;;
24030;SDS011;12240;51.142;22.486;2023-03-31T01:59:27;25.30;;;11.55;;
24030;SDS011;12240;51.142;22.486;2023-03-31T02:02:24;24.77;;;12.15;;
24030;SDS011;12240;51.142;22.486;2023-03-31T02:04:59;24.75;;;12.63;;
24030;SDS011;12240;51.142;22.486;2023-03-31T02:07:39;25.75;;;12.23;;
24030;SDS011;12240;51.142;22.486;2023-03-31T02:10:33;28.20;;;13.15;;
24030;SDS011;12240;51.142;22.486;2023-03-31T02:13:03;25.73;;;13.73;;
24030;SDS011;12240;51.142;22.486;2023-03-31T02:15:34;28.73;;;15.40;;
24030;SDS011;12240;51.142;22.486;2023-03-31T02:18:06;26.08;;;12.68;;
24030;SDS011;12240;51.142;22.486;2023-03-31T02:20:39;31.00;;;13.63;;
24030;SDS011;12240;51.142;22.486;2023-03-31T02:23:11;27.75;;;13.60;;
24030;SDS011;12240;51.142;22.486;2023-03-31T02:25:50;25.73;;;14.55;;
24030;SDS011;12240;51.142;22.486;2023-03-31T02:28:24;29.33;;;14.93;;
24030;SDS011;12240;51.142;22.486;2023-03-31T02:34:05;28.17;;;14.82;;
24030;SDS011;12240;51.142;22.486;2023-03-31T02:36:34;37.90;;;17.15;;
24030;SDS011;12240;51.142;22.486;2023-03-31T02:39:04;27.35;;;14.23;;
24030;SDS011;12240;51.142;22.486;2023-03-31T02:41:37;32.75;;;15.95;;
24030;SDS011;12240;51.142;22.486;2023-03-31T02:44:05;33.45;;;16.83;;
24030;SDS011;12240;51.142;22.486;2023-03-31T02:46:33;38.17;;;17.05;;
24030;SDS011;12240;51.142;22.486;2023-03-31T02:49:03;34.92;;;16.17;;
24030;SDS011;12240;51.142;22.486;2023-03-31T03:15:17;33.67;;;16.98;;
24030;SDS011;12240;51.142;22.486;2023-03-31T03:17:54;38.38;;;17.80;;
24030;SDS011;12240;51.142;22.486;2023-03-31T03:20:24;36.08;;;17.30;;
24030;SDS011;12240;51.142;22.486;2023-03-31T03:22:52;44.20;;;20.15;;
24030;SDS011;12240;51.142;22.486;2023-03-31T03:25:21;39.45;;;17.85;;
24030;SDS011;12240;51.142;22.486;2023-03-31T03:27:50;38.13;;;19.88;;
24030;SDS011;12240;51.142;22.486;2023-03-31T03:30:19;36.63;;;18.55;;
24030;SDS011;12240;51.142;22.486;2023-03-31T03:32:48;38.92;;;18.30;;
24030;SDS011;12240;51.142;22.486;2023-03-31T03:35:16;40.05;;;18.88;;
24030;SDS011;12240;51.142;22.486;2023-03-31T03:37:44;39.25;;;19.13;;
24030;SDS011;12240;51.142;22.486;2023-03-31T03:40:12;40.22;;;19.10;;
24030;SDS011;12240;51.142;22.486;2023-03-31T03:42:41;36.55;;;19.30;;
24030;SDS011;12240;51.142;22.486;2023-03-31T03:45:09;34.65;;;18.50;;
24030;SDS011;12240;51.142;22.486;2023-03-31T03:47:37;37.80;;;18.17;;
24030;SDS011;12240;51.142;22.486;2023-03-31T03:50:05;37.80;;;18.20;;
24030;SDS011;12240;51.142;22.486;2023-03-31T03:52:34;35.92;;;17.65;;
24030;SDS011;12240;51.142;22.486;2023-03-31T03:55:02;44.80;;;19.17;;
24030;SDS011;12240;51.142;22.486;2023-03-31T03:57:31;39.00;;;19.50;;
24030;SDS011;12240;51.142;22.486;2023-03-31T03:59:59;35.97;;;18.63;;
24030;SDS011;12240;51.142;22.486;2023-03-31T04:02:37;44.03;;;19.42;;
24030;SDS011;12240;51.142;22.486;2023-03-31T04:05:06;44.03;;;19.98;;
24030;SDS011;12240;51.142;22.486;2023-03-31T04:07:35;43.80;;;20.50;;
24030;SDS011;12240;51.142;22.486;2023-03-31T04:10:03;41.38;;;19.90;;
24030;SDS011;12240;51.142;22.486;2023-03-31T04:12:33;46.20;;;21.27;;
24030;SDS011;12240;51.142;22.486;2023-03-31T04:15:02;45.08;;;21.98;;
24030;SDS011;12240;51.142;22.486;2023-03-31T04:17:31;46.40;;;20.25;;
24030;SDS011;12240;51.142;22.486;2023-03-31T04:20:02;44.25;;;20.45;;
24030;SDS011;12240;51.142;22.486;2023-03-31T04:22:36;49.25;;;20.27;;
24030;SDS011;12240;51.142;22.486;2023-03-31T04:25:08;48.10;;;22.17;;
24030;SDS011;12240;51.142;22.486;2023-03-31T04:27:43;45.88;;;20.52;;
24030;SDS011;12240;51.142;22.486;2023-03-31T04:30:21;45.05;;;21.15;;
24030;SDS011;12240;51.142;22.486;2023-03-31T04:32:58;39.22;;;19.10;;
24030;SDS011;12240;51.142;22.486;2023-03-31T04:38:08;46.45;;;21.55;;
24030;SDS011;12240;51.142;22.486;2023-03-31T04:40:37;41.22;;;20.10;;
24030;SDS011;12240;51.142;22.486;2023-03-31T04:43:06;48.50;;;20.60;;
24030;SDS011;12240;51.142;22.486;2023-03-31T04:45:34;42.28;;;20.92;;
24030;SDS011;12240;51.142;22.486;2023-03-31T04:48:02;42.80;;;21.77;;
24030;SDS011;12240;51.142;22.486;2023-03-31T04:50:31;43.38;;;20.48;;
24030;SDS011;12240;51.142;22.486;2023-03-31T04:53:01;43.15;;;20.50;;
24030;SDS011;12240;51.142;22.486;2023-03-31T04:55:30;51.17;;;22.40;;
24030;SDS011;12240;51.142;22.486;2023-03-31T04:57:58;40.03;;;19.15;;
24030;SDS011;12240;51.142;22.486;2023-03-31T05:00:27;40.60;;;20.48;;
24030;SDS011;12240;51.142;22.486;2023-03-31T05:02:56;45.63;;;22.13;;
24030;SDS011;12240;51.142;22.486;2023-03-31T05:05:25;40.50;;;20.90;;
24030;SDS011;12240;51.142;22.486;2023-03-31T05:07:54;41.85;;;21.10;;
24030;SDS011;12240;51.142;22.486;2023-03-31T05:10:22;41.38;;;22.38;;
24030;SDS011;12240;51.142;22.486;2023-03-31T05:12:50;40.17;;;20.15;;
24030;SDS011;12240;51.142;22.486;2023-03-31T05:15:19;41.28;;;21.02;;
24030;SDS011;12240;51.142;22.486;2023-03-31T05:17:47;40.42;;;20.45;;
24030;SDS011;12240;51.142;22.486;2023-03-31T05:20:15;41.53;;;21.38;;
24030;SDS011;12240;51.142;22.486;2023-03-31T05:22:44;42.03;;;20.52;;
24030;SDS011;12240;51.142;22.486;2023-03-31T05:25:13;36.80;;;18.58;;
24030;SDS011;12240;51.142;22.486;2023-03-31T05:30:14;35.13;;;18.08;;
24030;SDS011;12240;51.142;22.486;2023-03-31T05:32:43;37.05;;;20.38;;
24030;SDS011;12240;51.142;22.486;2023-03-31T05:35:11;37.05;;;17.75;;
24030;SDS011;12240;51.142;22.486;2023-03-31T05:37:39;36.88;;;19.35;;
24030;SDS011;12240;51.142;22.486;2023-03-31T05:40:08;34.55;;;17.73;;
24030;SDS011;12240;51.142;22.486;2023-03-31T05:42:37;34.67;;;17.83;;
24030;SDS011;12240;51.142;22.486;2023-03-31T05:45:05;36.50;;;17.88;;
24030;SDS011;12240;51.142;22.486;2023-03-31T05:47:35;30.40;;;16.83;;
24030;SDS011;12240;51.142;22.486;2023-03-31T05:50:04;28.08;;;16.63;;
24030;SDS011;12240;51.142;22.486;2023-03-31T05:52:35;33.95;;;17.45;;
24030;SDS011;12240;51.142;22.486;2023-03-31T05:55:04;31.63;;;17.45;;
24030;SDS011;12240;51.142;22.486;2023-03-31T05:57:34;34.42;;;18.80;;
24030;SDS011;12240;51.142;22.486;2023-03-31T06:00:03;35.65;;;17.95;;
24030;SDS011;12240;51.142;22.486;2023-03-31T06:02:32;35.47;;;18.77;;
24030;SDS011;12240;51.142;22.486;2023-03-31T06:05:00;33.63;;;18.33;;
24030;SDS011;12240;51.142;22.486;2023-03-31T06:07:29;40.22;;;17.30;;
24030;SDS011;12240;51.142;22.486;2023-03-31T06:09:57;37.67;;;16.27;;
24030;SDS011;12240;51.142;22.486;2023-03-31T06:12:25;40.42;;;18.40;;
24030;SDS011;12240;51.142;22.486;2023-03-31T06:14:54;34.08;;;16.63;;
24030;SDS011;12240;51.142;22.486;2023-03-31T06:17:22;34.80;;;15.77;;
24030;SDS011;12240;51.142;22.486;2023-03-31T06:19:50;33.33;;;16.58;;
24030;SDS011;12240;51.142;22.486;2023-03-31T06:22:18;25.23;;;14.68;;
24030;SDS011;12240;51.142;22.486;2023-03-31T06:24:47;28.90;;;17.05;;
24030;SDS011;12240;51.142;22.486;2023-03-31T06:27:15;29.77;;;16.02;;
24030;SDS011;12240;51.142;22.486;2023-03-31T06:29:43;27.88;;;15.63;;
24030;SDS011;12240;51.142;22.486;2023-03-31T06:32:12;26.27;;;14.85;;
24030;SDS011;12240;51.142;22.486;2023-03-31T06:34:40;26.52;;;14.68;;
24030;SDS011;12240;51.142;22.486;2023-03-31T06:37:08;24.20;;;14.70;;
24030;SDS011;12240;51.142;22.486;2023-03-31T06:39:36;26.70;;;15.27;;
24030;SDS011;12240;51.142;22.486;2023-03-31T06:42:05;24.67;;;14.25;;
24030;SDS011;12240;51.142;22.486;2023-03-31T06:44:39;24.20;;;14.60;;
24030;SDS011;12240;51.142;22.486;2023-03-31T06:47:07;23.98;;;13.45;;
24030;SDS011;12240;51.142;22.486;2023-03-31T06:49:36;24.10;;;12.88;;
24030;SDS011;12240;51.142;22.486;2023-03-31T06:52:04;23.88;;;12.32;;
24030;SDS011;12240;51.142;22.486;2023-03-31T06:54:32;25.00;;;12.93;;
24030;SDS011;12240;51.142;22.486;2023-03-31T06:57:01;24.73;;;13.13;;
24030;SDS011;12240;51.142;22.486;2023-03-31T06:59:29;21.60;;;12.93;;
24030;SDS011;12240;51.142;22.486;2023-03-31T07:01:57;24.35;;;13.02;;
24030;SDS011;12240;51.142;22.486;2023-03-31T07:04:26;22.33;;;12.73;;
24030;SDS011;12240;51.142;22.486;2023-03-31T07:06:56;23.05;;;13.05;;
24030;SDS011;12240;51.142;22.486;2023-03-31T07:09:26;18.58;;;10.50;;
24030;SDS011;12240;51.142;22.486;2023-03-31T07:11:55;27.15;;;12.57;;
24030;SDS011;12240;51.142;22.486;2023-03-31T07:14:23;18.13;;;11.13;;
24030;SDS011;12240;51.142;22.486;2023-03-31T07:16:51;30.42;;;12.63;;
24030;SDS011;12240;51.142;22.486;2023-03-31T07:19:20;21.67;;;11.52;;
24030;SDS011;12240;51.142;22.486;2023-03-31T07:21:49;22.83;;;11.48;;
24030;SDS011;12240;51.142;22.486;2023-03-31T07:24:17;19.40;;;10.77;;
24030;SDS011;12240;51.142;22.486;2023-03-31T07:26:46;17.42;;;10.90;;
24030;SDS011;12240;51.142;22.486;2023-03-31T07:29:14;23.05;;;11.20;;
24030;SDS011;12240;51.142;22.486;2023-03-31T07:31:45;17.80;;;9.88;;
24030;SDS011;12240;51.142;22.486;2023-03-31T07:34:14;16.35;;;9.90;;
24030;SDS011;12240;51.142;22.486;2023-03-31T07:36:42;15.18;;;9.43;;
24030;SDS011;12240;51.142;22.486;2023-03-31T07:39:11;15.18;;;9.27;;
24030;SDS011;12240;51.142;22.486;2023-03-31T07:41:39;16.75;;;9.02;;
24030;SDS011;12240;51.142;22.486;2023-03-31T07:44:08;17.13;;;10.07;;
24030;SDS011;12240;51.142;22.486;2023-03-31T07:46:36;14.73;;;9.18;;
24030;SDS011;12240;51.142;22.486;2023-03-31T07:49:05;18.52;;;8.77;;
24030;SDS011;12240;51.142;22.486;2023-03-31T07:51:35;17.48;;;8.95;;
24030;SDS011;12240;51.142;22.486;2023-03-31T07:54:04;18.65;;;8.57;;
24030;SDS011;12240;51.142;22.486;2023-03-31T07:56:32;15.77;;;8.95;;
24030;SDS011;12240;51.142;22.486;2023-03-31T07:59:00;13.20;;;7.82;;
24030;SDS011;12240;51.142;22.486;2023-03-31T08:01:29;17.25;;;8.13;;
24030;SDS011;12240;51.142;22.486;2023-03-31T08:03:57;13.80;;;8.93;;
24030;SDS011;12240;51.142;22.486;2023-03-31T08:06:25;14.45;;;7.97;;
24030;SDS011;12240;51.142;22.486;2023-03-31T08:08:55;15.15;;;8.30;;
24030;SDS011;12240;51.142;22.486;2023-03-31T08:11:24;14.13;;;8.55;;
24030;SDS011;12240;51.142;22.486;2023-03-31T08:13:52;16.60;;;8.25;;
24030;SDS011;12240;51.142;22.486;2023-03-31T08:16:20;12.98;;;7.97;;
24030;SDS011;12240;51.142;22.486;2023-03-31T08:18:49;12.80;;;7.30;;
24030;SDS011;12240;51.142;22.486;2023-03-31T08:21:17;16.98;;;7.68;;
24030;SDS011;12240;51.142;22.486;2023-03-31T08:23:46;16.25;;;8.02;;
24030;SDS011;12240;51.142;22.486;2023-03-31T08:26:16;12.50;;;7.88;;
24030;SDS011;12240;51.142;22.486;2023-03-31T08:28:44;14.98;;;9.00;;
24030;SDS011;12240;51.142;22.486;2023-03-31T08:31:15;16.43;;;9.90;;
24030;SDS011;12240;51.142;22.486;2023-03-31T08:33:46;17.63;;;9.98;;
24030;SDS011;12240;51.142;22.486;2023-03-31T08:36:15;16.13;;;8.45;;
24030;SDS011;12240;51.142;22.486;2023-03-31T08:38:43;13.82;;;8.20;;
24030;SDS011;12240;51.142;22.486;2023-03-31T08:44:15;15.52;;;8.63;;
24030;SDS011;12240;51.142;22.486;2023-03-31T08:46:58;11.15;;;7.80;;
24030;SDS011;12240;51.142;22.486;2023-03-31T08:49:30;12.38;;;7.68;;
24030;SDS011;12240;51.142;22.486;2023-03-31T08:52:32;14.18;;;7.90;;
24030;SDS011;12240;51.142;22.486;2023-03-31T08:58:58;13.43;;;7.20;;
24030;SDS011;12240;51.142;22.486;2023-03-31T09:10:57;14.68;;;7.82;;
24030;SDS011;12240;51.142;22.486;2023-03-31T09:14:00;16.45;;;9.43;;
24030;SDS011;12240;51.142;22.486;2023-03-31T09:17:26;15.13;;;8.82;;
24030;SDS011;12240;51.142;22.486;2023-03-31T09:20:45;15.63;;;8.93;;
24030;SDS011;12240;51.142;22.486;2023-03-31T09:23:16;16.23;;;8.20;;
24030;SDS011;12240;51.142;22.486;2023-03-31T09:29:19;14.07;;;7.70;;
24030;SDS011;12240;51.142;22.486;2023-03-31T09:32:23;16.23;;;8.60;;
24030;SDS011;12240;51.142;22.486;2023-03-31T09:35:19;13.85;;;7.82;;
24030;SDS011;12240;51.142;22.486;2023-03-31T09:37:52;11.93;;;7.20;;
24030;SDS011;12240;51.142;22.486;2023-03-31T09:40:22;13.23;;;6.95;;
24030;SDS011;12240;51.142;22.486;2023-03-31T09:43:06;14.38;;;8.35;;
24030;SDS011;12240;51.142;22.486;2023-03-31T09:45:42;14.35;;;7.28;;
24030;SDS011;12240;51.142;22.486;2023-03-31T09:48:33;15.05;;;7.97;;
24030;SDS011;12240;51.142;22.486;2023-03-31T09:51:13;16.63;;;9.32;;
24030;SDS011;12240;51.142;22.486;2023-03-31T09:53:54;17.13;;;9.60;;
24030;SDS011;12240;51.142;22.486;2023-03-31T09:56:31;16.98;;;8.50;;
24030;SDS011;12240;51.142;22.486;2023-03-31T09:59:22;13.23;;;8.27;;
24030;SDS011;12240;51.142;22.486;2023-03-31T10:02:15;14.05;;;8.55;;
24030;SDS011;12240;51.142;22.486;2023-03-31T10:04:52;20.95;;;9.07;;
24030;SDS011;12240;51.142;22.486;2023-03-31T10:07:22;17.63;;;7.82;;
24030;SDS011;12240;51.142;22.486;2023-03-31T10:09:51;20.00;;;9.00;;
24030;SDS011;12240;51.142;22.486;2023-03-31T10:12:26;13.88;;;7.70;;
24030;SDS011;12240;51.142;22.486;2023-03-31T10:15:18;12.88;;;7.20;;
24030;SDS011;12240;51.142;22.486;2023-03-31T10:17:52;14.77;;;7.95;;
24030;SDS011;12240;51.142;22.486;2023-03-31T10:20:32;15.65;;;7.97;;
24030;SDS011;12240;51.142;22.486;2023-03-31T10:23:05;13.45;;;7.47;;
24030;SDS011;12240;51.142;22.486;2023-03-31T10:26:02;16.50;;;8.95;;
24030;SDS011;12240;51.142;22.486;2023-03-31T10:28:32;14.23;;;8.40;;
24030;SDS011;12240;51.142;22.486;2023-03-31T10:33:31;16.27;;;8.93;;
24030;SDS011;12240;51.142;22.486;2023-03-31T10:36:10;17.63;;;8.15;;
24030;SDS011;12240;51.142;22.486;2023-03-31T10:38:49;15.35;;;8.50;;
24030;SDS011;12240;51.142;22.486;2023-03-31T10:41:24;14.70;;;7.10;;
24030;SDS011;12240;51.142;22.486;2023-03-31T10:43:57;16.13;;;7.65;;
24030;SDS011;12240;51.142;22.486;2023-03-31T10:46:42;16.52;;;6.70;;
24030;SDS011;12240;51.142;22.486;2023-03-31T10:49:22;12.98;;;6.88;;
24030;SDS011;12240;51.142;22.486;2023-03-31T10:51:54;13.75;;;7.93;;
24030;SDS011;12240;51.142;22.486;2023-03-31T10:54:25;13.60;;;7.57;;
24030;SDS011;12240;51.142;22.486;2023-03-31T10:56:54;17.90;;;8.82;;
24030;SDS011;12240;51.142;22.486;2023-03-31T11:05:50;19.92;;;7.50;;
24030;SDS011;12240;51.142;22.486;2023-03-31T11:14:59;18.40;;;7.50;;
24030;SDS011;12240;51.142;22.486;2023-03-31T11:18:13;14.60;;;6.57;;
24030;SDS011;12240;51.142;22.486;2023-03-31T11:29:46;25.95;;;7.85;;
24030;SDS011;12240;51.142;22.486;2023-03-31T11:38:59;38.80;;;10.65;;
24030;SDS011;12240;51.142;22.486;2023-03-31T11:41:53;37.78;;;11.10;;
24030;SDS011;12240;51.142;22.486;2023-03-31T11:44:35;31.95;;;9.70;;
24030;SDS011;12240;51.142;22.486;2023-03-31T11:47:13;31.77;;;9.75;;
24030;SDS011;12240;51.142;22.486;2023-03-31T11:49:59;47.25;;;12.05;;
24030;SDS011;12240;51.142;22.486;2023-03-31T11:55:29;41.58;;;11.20;;
24030;SDS011;12240;51.142;22.486;2023-03-31T12:00:30;44.55;;;11.45;;
24030;SDS011;12240;51.142;22.486;2023-03-31T12:06:23;51.85;;;12.60;;
24030;SDS011;12240;51.142;22.486;2023-03-31T12:09:09;38.22;;;10.95;;
24030;SDS011;12240;51.142;22.486;2023-03-31T12:12:09;46.47;;;11.32;;
24030;SDS011;12240;51.142;22.486;2023-03-31T12:14:54;69.38;;;14.10;;
24030;SDS011;12240;51.142;22.486;2023-03-31T12:17:33;53.33;;;12.23;;
24030;SDS011;12240;51.142;22.486;2023-03-31T12:20:05;52.53;;;12.40;;
24030;SDS011;12240;51.142;22.486;2023-03-31T12:22:47;60.92;;;13.45;;
24030;SDS011;12240;51.142;22.486;2023-03-31T12:25:20;46.50;;;11.65;;
24030;SDS011;12240;51.142;22.486;2023-03-31T12:27:52;53.92;;;12.35;;
24030;SDS011;12240;51.142;22.486;2023-03-31T12:30:29;35.22;;;9.55;;
24030;SDS011;12240;51.142;22.486;2023-03-31T12:55:55;251.75;;;87.30;;
24030;SDS011;12240;51.142;22.486;2023-03-31T13:04:07;411.90;;;151.57;;
24030;SDS011;12240;51.142;22.486;2023-03-31T13:09:05;373.05;;;141.07;;
24030;SDS011;12240;51.142;22.486;2023-03-31T13:12:06;378.15;;;141.00;;
24030;SDS011;12240;51.142;22.486;2023-03-31T13:14:39;394.65;;;144.73;;
24030;SDS011;12240;51.142;22.486;2023-03-31T13:19:34;374.05;;;132.00;;
24030;SDS011;12240;51.142;22.486;2023-03-31T13:22:04;372.13;;;137.48;;
24030;SDS011;12240;51.142;22.486;2023-03-31T13:24:33;366.88;;;133.52;;
24030;SDS011;12240;51.142;22.486;2023-03-31T13:30:01;363.80;;;129.55;;
24030;SDS011;12240;51.142;22.486;2023-03-31T13:32:32;330.80;;;130.40;;
24030;SDS011;12240;51.142;22.486;2023-03-31T13:35:13;372.00;;;132.63;;
24030;SDS011;12240;51.142;22.486;2023-03-31T13:41:12;322.02;;;121.10;;
24030;SDS011;12240;51.142;22.486;2023-03-31T13:43:55;327.87;;;118.47;;
24030;SDS011;12240;51.142;22.486;2023-03-31T15:47:18;4.30;;;2.35;;
24030;SDS011;12240;51.142;22.486;2023-03-31T15:52:46;11.73;;;2.80;;
24030;SDS011;12240;51.142;22.486;2023-03-31T16:04:39;14.02;;;3.50;;
24030;SDS011;12240;51.142;22.486;2023-03-31T16:07:13;11.98;;;3.67;;
24030;SDS011;12240;51.142;22.486;2023-03-31T16:14:57;11.73;;;4.93;;
24030;SDS011;12240;51.142;22.486;2023-03-31T16:19:20;20.38;;;4.03;;
24030;SDS011;12240;51.142;22.486;2023-03-31T16:26:57;13.35;;;4.15;;
24030;SDS011;12240;51.142;22.486;2023-03-31T16:30:37;19.80;;;4.13;;
24030;SDS011;12240;51.142;22.486;2023-03-31T16:33:12;14.63;;;4.63;;
24030;SDS011;12240;51.142;22.486;2023-03-31T16:35:52;19.98;;;4.65;;
24030;SDS011;12240;51.142;22.486;2023-03-31T16:44:07;19.13;;;5.93;;
24030;SDS011;12240;51.142;22.486;2023-03-31T16:46:38;17.30;;;4.85;;
24030;SDS011;12240;51.142;22.486;2023-03-31T17:00:25;294.13;;;153.27;;
24030;SDS011;12240;51.142;22.486;2023-03-31T17:02:55;98.03;;;14.02;;
24030;SDS011;12240;51.142;22.486;2023-03-31T17:07:29;407.40;;;179.35;;
24030;SDS011;12240;51.142;22.486;2023-03-31T17:09:58;393.02;;;182.43;;
24030;SDS011;12240;51.142;22.486;2023-03-31T17:12:26;409.70;;;188.45;;
24030;SDS011;12240;51.142;22.486;2023-03-31T17:15:35;377.48;;;181.95;;
24030;SDS011;12240;51.142;22.486;2023-03-31T17:18:04;367.83;;;183.52;;
24030;SDS011;12240;51.142;22.486;2023-03-31T17:20:33;396.52;;;189.40;;
24030;SDS011;12240;51.142;22.486;2023-03-31T17:23:02;276.85;;;165.80;;
24030;SDS011;12240;51.142;22.486;2023-03-31T17:25:35;256.73;;;154.55;;
24030;SDS011;12240;51.142;22.486;2023-03-31T17:39:14;35.72;;;7.97;;
24030;SDS011;12240;51.142;22.486;2023-03-31T17:41:43;34.97;;;8.43;;
24030;SDS011;12240;51.142;22.486;2023-03-31T17:44:11;27.77;;;7.97;;
24030;SDS011;12240;51.142;22.486;2023-03-31T17:47:47;47.78;;;10.05;;
24030;SDS011;12240;51.142;22.486;2023-03-31T17:54:11;278.60;;;164.30;;
24030;SDS011;12240;51.142;22.486;2023-03-31T17:56:39;84.65;;;28.92;;
24030;SDS011;12240;51.142;22.486;2023-03-31T18:00:04;61.63;;;10.20;;
24030;SDS011;12240;51.142;22.486;2023-03-31T18:06:22;101.40;;;64.25;;
24030;SDS011;12240;51.142;22.486;2023-03-31T18:10:51;352.17;;;158.82;;
24030;SDS011;12240;51.142;22.486;2023-03-31T18:11:05;381.15;;;184.23;;
24030;SDS011;12240;51.142;22.486;2023-03-31T18:11:19;396.67;;;193.98;;
24030;SDS011;12240;51.142;22.486;2023-03-31T18:11:33;404.20;;;197.65;;
24030;SDS011;12240;51.142;22.486;2023-03-31T18:11:46;396.15;;;200.75;;
24030;SDS011;12240;51.142;22.486;2023-03-31T18:11:59;353.13;;;195.02;;
24030;SDS011;12240;51.142;22.486;2023-03-31T18:12:13;299.25;;;180.40;;
24030;SDS011;12240;51.142;22.486;2023-03-31T18:12:27;234.50;;;145.07;;
24030;SDS011;12240;51.142;22.486;2023-03-31T18:12:41;173.00;;;91.80;;
24030;SDS011;12240;51.142;22.486;2023-03-31T18:12:57;122.43;;;36.83;;
24030;SDS011;12240;51.142;22.486;2023-03-31T18:13:11;94.22;;;18.92;;
24030;SDS011;12240;51.142;22.486;2023-03-31T18:13:24;91.40;;;16.35;;
24030;SDS011;12240;51.142;22.486;2023-03-31T18:13:38;102.18;;;17.27;;
24030;SDS011;12240;51.142;22.486;2023-03-31T18:13:52;107.18;;;17.15;;
24030;SDS011;12240;51.142;22.486;2023-03-31T18:14:06;102.03;;;16.27;;
24030;SDS011;12240;51.142;22.486;2023-03-31T18:14:20;85.05;;;14.43;;
24030;SDS011;12240;51.142;22.486;2023-03-31T18:14:33;83.88;;;14.02;;
24030;SDS011;12240;51.142;22.486;2023-03-31T18:14:46;79.20;;;13.25;;
24030;SDS011;12240;51.142;22.486;2023-03-31T18:19:47;295.02;;;143.02;;
24030;SDS011;12240;51.142;22.486;2023-03-31T18:20:01;362.80;;;173.38;;
24030;SDS011;12240;51.142;22.486;2023-03-31T18:20:15;385.80;;;184.80;;
24030;SDS011;12240;51.142;22.486;2023-03-31T18:20:29;382.70;;;189.93;;
24030;SDS011;12240;51.142;22.486;2023-03-31T18:20:44;368.63;;;195.57;;
24030;SDS011;12240;51.142;22.486;2023-03-31T18:21:01;352.67;;;190.05;;
24030;SDS011;12240;51.142;22.486;2023-03-31T18:21:15;340.83;;;182.57;;
24030;SDS011;12240;51.142;22.486;2023-03-31T18:21:29;350.15;;;185.20;;
24030;SDS011;12240;51.142;22.486;2023-03-31T18:21:43;358.30;;;186.30;;
24030;SDS011;12240;51.142;22.486;2023-03-31T18:21:56;357.33;;;185.27;;
24030;SDS011;12240;51.142;22.486;2023-03-31T18:22:10;358.42;;;181.02;;
24030;SDS011;12240;51.142;22.486;2023-03-31T18:22:23;359.45;;;183.80;;
24030;SDS011;12240;51.142;22.486;2023-03-31T18:22:37;359.15;;;185.70;;
24030;SDS011;12240;51.142;22.486;2023-03-31T18:22:50;359.90;;;184.10;;
24030;SDS011;12240;51.142;22.486;2023-03-31T18:23:04;353.73;;;181.50;;
24030;SDS011;12240;51.142;22.486;2023-03-31T18:23:17;365.17;;;185.32;;
24030;SDS011;12240;51.142;22.486;2023-03-31T18:23:30;376.27;;;195.43;;
24030;SDS011;12240;51.142;22.486;2023-03-31T18:23:45;401.23;;;213.25;;
24030;SDS011;12240;51.142;22.486;2023-03-31T18:27:01;334.88;;;207.48;;
24030;SDS011;12240;51.142;22.486;2023-03-31T18:27:17;371.13;;;215.02;;
24030;SDS011;12240;51.142;22.486;2023-03-31T18:27:30;362.65;;;207.15;;
24030;SDS011;12240;51.142;22.486;2023-03-31T18:27:44;327.35;;;187.60;;
24030;SDS011;12240;51.142;22.486;2023-03-31T18:27:58;317.83;;;173.30;;
24030;SDS011;12240;51.142;22.486;2023-03-31T18:28:12;353.75;;;190.25;;
24030;SDS011;12240;51.142;22.486;2023-03-31T18:28:27;386.98;;;203.30;;
24030;SDS011;12240;51.142;22.486;2023-03-31T18:28:40;398.63;;;199.57;;
24030;SDS011;12240;51.142;22.486;2023-03-31T18:28:54;421.90;;;212.70;;
24030;SDS011;12240;51.142;22.486;2023-03-31T18:29:07;406.10;;;215.10;;
24030;SDS011;12240;51.142;22.486;2023-03-31T18:29:21;394.08;;;205.38;;
24030;SDS011;12240;51.142;22.486;2023-03-31T18:29:34;421.27;;;221.68;;
24030;SDS011;12240;51.142;22.486;2023-03-31T18:29:47;430.17;;;222.32;;
24030;SDS011;12240;51.142;22.486;2023-03-31T18:30:02;426.50;;;219.77;;
24030;SDS011;12240;51.142;22.486;2023-03-31T18:30:17;429.90;;;216.68;;
24030;SDS011;12240;51.142;22.486;2023-03-31T18:30:30;437.67;;;205.60;;
24030;SDS011;12240;51.142;22.486;2023-03-31T18:30:43;419.92;;;192.32;;
24030;SDS011;12240;51.142;22.486;2023-03-31T18:31:02;255.18;;;103.78;;
24030;SDS011;12240;51.142;22.486;2023-03-31T18:31:16;84.22;;;13.57;;
24030;SDS011;12240;51.142;22.486;2023-03-31T18:31:32;83.10;;;13.52;;
24030;SDS011;12240;51.142;22.486;2023-03-31T18:31:46;80.47;;;12.77;;